createdAt,value
2023-03-07T00:00:11.378Z,83.72
2023-03-07T00:02:28.326Z,84.75
2023-03-07T00:04:46.614Z,84.44
2023-03-07T00:07:03.643Z,84.52
2023-03-07T00:09:21.065Z,85.02
2023-03-07T00:11:38.151Z,85.02
2023-03-07T00:13:55.041Z,85.81
2023-03-07T00:16:11.935Z,86.20
2023-03-07T00:18:28.936Z,84.98
2023-03-07T00:20:45.980Z,86.33
2023-03-07T00:23:03.872Z,85.43
2023-03-07T00:25:20.905Z,86.06
2023-03-07T00:27:37.844Z,85.75
2023-03-07T00:29:54.919Z,84.59
2023-03-07T00:32:12.263Z,85.52
2023-03-07T00:34:29.182Z,85.97
2023-03-07T00:36:46.277Z,86.00
2023-03-07T00:39:03.346Z,85.64
2023-03-07T00:41:20.266Z,85.84
2023-03-07T00:43:37.528Z,84.96
2023-03-07T00:45:54.812Z,85.15
2023-03-07T00:48:11.981Z,85.43
2023-03-07T00:50:28.984Z,85.96
2023-03-07T00:52:47.264Z,85.23
2023-03-07T00:55:04.488Z,84.98
2023-03-07T00:57:21.578Z,85.76
2023-03-07T00:59:38.614Z,86.10
2023-03-07T01:01:55.699Z,85.71
2023-03-07T01:04:12.759Z,85.97
2023-03-07T01:06:29.797Z,86.60
2023-03-07T01:08:46.893Z,86.97
2023-03-07T01:11:04.242Z,86.38
2023-03-07T01:13:21.507Z,86.74
2023-03-07T01:15:38.439Z,86.69
2023-03-07T01:17:55.374Z,87.23
2023-03-07T01:20:13.407Z,87.80
2023-03-07T01:22:31.651Z,87.32
2023-03-07T01:24:48.669Z,86.86
2023-03-07T01:27:05.622Z,87.61
2023-03-07T01:29:22.690Z,87.64
2023-03-07T01:31:39.730Z,87.27
2023-03-07T01:33:56.722Z,88.30
2023-03-07T01:36:17.263Z,87.74
2023-03-07T01:38:34.542Z,87.86
2023-03-07T01:40:51.770Z,88.48
2023-03-07T01:43:09.765Z,87.92
2023-03-07T01:45:26.837Z,88.34
2023-03-07T01:47:44.219Z,89.22
2023-03-07T01:50:01.339Z,89.82
2023-03-07T01:52:18.538Z,90.15
2023-03-07T01:54:35.557Z,89.32
2023-03-07T01:56:53.770Z,89.56
2023-03-07T01:59:11.029Z,89.08
2023-03-07T02:01:28.005Z,88.46
2023-03-07T02:03:45.355Z,88.66
2023-03-07T02:06:02.396Z,89.77
2023-03-07T02:08:20.411Z,89.63
2023-03-07T02:10:37.458Z,88.87
2023-03-07T02:12:55.376Z,89.75
2023-03-07T02:15:12.332Z,88.55
2023-03-07T02:17:29.642Z,89.04
2023-03-07T02:19:46.761Z,88.78
2023-03-07T02:22:03.750Z,88.60
2023-03-07T02:24:21.106Z,88.36
2023-03-07T02:26:38.437Z,88.67
2023-03-07T02:28:55.542Z,88.32
2023-03-07T02:31:12.664Z,89.12
2023-03-07T02:33:29.639Z,89.45
2023-03-07T02:35:46.623Z,89.10
2023-03-07T02:38:03.682Z,88.39
2023-03-07T02:40:20.616Z,88.34
2023-03-07T02:42:37.619Z,89.15
2023-03-07T02:44:54.943Z,88.41
2023-03-07T02:47:11.908Z,88.53
2023-03-07T02:49:29.945Z,88.54
2023-03-07T02:51:47.010Z,87.38
2023-03-07T02:54:03.943Z,88.16
2023-03-07T02:56:22.334Z,87.79
2023-03-07T02:58:39.597Z,88.04
2023-03-07T03:00:56.717Z,88.63
2023-03-07T03:03:13.937Z,89.25
2023-03-07T03:05:31.008Z,88.59
2023-03-07T03:07:48.339Z,87.86
2023-03-07T03:10:05.638Z,88.25
2023-03-07T03:12:22.656Z,88.56
2023-03-07T03:14:39.939Z,88.27
2023-03-07T03:16:58.190Z,88.47
2023-03-07T03:19:15.280Z,88.56
2023-03-07T03:21:32.645Z,87.93
2023-03-07T03:23:50.024Z,88.85
2023-03-07T03:26:07.053Z,89.03
2023-03-07T03:28:24.301Z,90.41
2023-03-07T03:30:41.374Z,88.90
2023-03-07T03:32:59.782Z,88.76
2023-03-07T03:35:17.096Z,89.51
2023-03-07T03:37:34.263Z,89.71
2023-03-07T03:39:52.240Z,89.12
2023-03-07T03:42:09.188Z,89.17
2023-03-07T03:44:26.184Z,89.70
2023-03-07T03:46:43.148Z,89.78
2023-03-07T03:49:00.177Z,89.29
2023-03-07T03:51:17.337Z,89.89
2023-03-07T03:53:34.364Z,90.28
2023-03-07T03:55:51.728Z,90.13
2023-03-07T03:58:08.795Z,89.26
2023-03-07T04:00:25.818Z,89.56
2023-03-07T04:02:42.830Z,90.33
2023-03-07T04:04:59.896Z,89.45
2023-03-07T04:07:16.969Z,88.59
2023-03-07T04:09:34.252Z,89.48
2023-03-07T04:11:51.271Z,88.91
2023-03-07T04:14:08.140Z,89.86
2023-03-07T04:16:25.195Z,89.85
2023-03-07T04:18:42.333Z,88.45
2023-03-07T04:20:59.630Z,88.24
2023-03-07T04:23:16.644Z,88.59
2023-03-07T04:25:33.947Z,88.55
2023-03-07T04:27:51.048Z,87.38
2023-03-07T04:30:08.344Z,87.60
2023-03-07T04:32:25.499Z,86.77
2023-03-07T04:34:42.435Z,87.43
2023-03-07T04:36:59.703Z,87.68
2023-03-07T04:39:16.981Z,86.58
2023-03-07T04:41:34.046Z,86.90
2023-03-07T04:43:50.949Z,87.27
2023-03-07T04:46:07.837Z,86.42
2023-03-07T04:48:24.778Z,86.29
2023-03-07T04:50:42.146Z,86.19
2023-03-07T04:52:59.079Z,86.93
2023-03-07T04:55:16.363Z,87.53
2023-03-07T04:57:33.304Z,86.82
2023-03-07T04:59:50.783Z,87.94
2023-03-07T05:02:08.048Z,87.99
2023-03-07T05:04:25.099Z,88.25
2023-03-07T05:06:42.077Z,87.80
2023-03-07T05:08:59.307Z,87.99
2023-03-07T05:11:16.209Z,87.81
2023-03-07T05:13:33.586Z,87.36
2023-03-07T05:15:51.915Z,87.47
2023-03-07T05:18:08.843Z,87.27
2023-03-07T05:20:25.773Z,86.82
2023-03-07T05:22:42.806Z,87.06
2023-03-07T05:24:59.682Z,87.28
2023-03-07T05:27:17.656Z,88.00
2023-03-07T05:29:34.555Z,87.63
2023-03-07T05:31:51.548Z,88.00
2023-03-07T05:34:09.472Z,87.87
2023-03-07T05:36:26.352Z,87.90
2023-03-07T05:38:43.353Z,87.36
2023-03-07T05:41:00.326Z,87.09
2023-03-07T05:43:17.246Z,86.70
2023-03-07T05:45:34.303Z,87.31
2023-03-07T05:47:51.282Z,87.70
2023-03-07T05:50:08.500Z,86.89
2023-03-07T05:52:25.533Z,88.04
2023-03-07T05:54:42.483Z,87.12
2023-03-07T05:56:59.708Z,87.83
2023-03-07T05:59:16.645Z,87.84
2023-03-07T06:01:34.805Z,88.64
2023-03-07T06:03:52.095Z,88.48
2023-03-07T06:06:09.115Z,88.21
2023-03-07T06:08:26.175Z,87.81
2023-03-07T06:10:43.202Z,87.95
2023-03-07T06:13:00.205Z,89.18
2023-03-07T06:15:17.099Z,89.21
2023-03-07T06:17:34.164Z,89.36
2023-03-07T06:19:51.145Z,88.73
2023-03-07T06:22:08.365Z,88.28
2023-03-07T06:24:25.323Z,89.05
2023-03-07T06:26:42.612Z,89.33
2023-03-07T06:28:59.850Z,89.26
2023-03-07T06:31:17.189Z,88.67
2023-03-07T06:33:34.269Z,88.38
2023-03-07T06:35:51.476Z,88.89
2023-03-07T06:38:08.514Z,88.17
2023-03-07T06:40:25.630Z,88.30
2023-03-07T06:42:42.868Z,88.07
2023-03-07T06:45:00.157Z,89.43
2023-03-07T06:47:17.053Z,89.13
2023-03-07T06:49:35.115Z,88.72
2023-03-07T06:51:52.149Z,88.94
2023-03-07T06:54:09.233Z,88.68
2023-03-07T06:56:26.168Z,88.95
2023-03-07T06:58:43.469Z,89.08
2023-03-07T07:01:00.732Z,88.15
2023-03-07T07:03:17.886Z,88.14
2023-03-07T07:05:35.275Z,88.07
2023-03-07T07:07:52.201Z,87.85
2023-03-07T07:10:10.299Z,88.47
2023-03-07T07:12:27.625Z,87.29
2023-03-07T07:14:44.702Z,87.52
2023-03-07T07:17:01.791Z,87.57
2023-03-07T07:19:18.835Z,87.25
2023-03-07T07:21:35.945Z,87.19
2023-03-07T07:23:52.865Z,86.41
2023-03-07T07:26:09.916Z,85.56
2023-03-07T07:28:27.225Z,84.39
2023-03-07T07:30:44.298Z,84.89
2023-03-07T07:33:01.442Z,84.50
2023-03-07T07:35:18.437Z,84.51
2023-03-07T07:37:35.797Z,84.90
2023-03-07T07:39:52.871Z,85.44
2023-03-07T07:42:09.775Z,84.93
2023-03-07T07:44:26.791Z,83.48
2023-03-07T07:46:44.844Z,83.54
2023-03-07T07:49:01.900Z,82.59
2023-03-07T07:51:19.212Z,83.02
2023-03-07T07:53:36.510Z,82.26
2023-03-07T07:55:53.477Z,80.70
2023-03-07T07:58:10.719Z,81.33
2023-03-07T08:00:27.812Z,81.43
2023-03-07T08:02:45.169Z,80.21
2023-03-07T08:05:02.172Z,80.29
2023-03-07T08:07:19.116Z,81.22
2023-03-07T08:09:36.107Z,80.27
2023-03-07T08:11:53.300Z,80.69
2023-03-07T08:14:10.351Z,79.67
2023-03-07T08:16:27.650Z,79.65
2023-03-07T08:18:44.677Z,77.78
2023-03-07T08:21:01.613Z,77.77
2023-03-07T08:23:18.599Z,77.22
2023-03-07T08:25:35.709Z,77.65
2023-03-07T08:27:52.977Z,76.76
2023-03-07T08:30:10.106Z,77.64
2023-03-07T08:32:27.118Z,76.88
2023-03-07T08:34:44.077Z,76.27
2023-03-07T08:37:01.156Z,76.00
2023-03-07T08:39:19.212Z,75.17
2023-03-07T08:41:36.128Z,75.69
2023-03-07T08:43:53.120Z,75.17
2023-03-07T08:46:10.422Z,75.81
2023-03-07T08:48:27.447Z,74.87
2023-03-07T08:50:44.500Z,75.31
2023-03-07T08:53:01.625Z,72.75
2023-03-07T08:55:19.886Z,74.08
2023-03-07T08:57:37.901Z,73.77
2023-03-07T08:59:54.966Z,73.56
2023-03-07T09:02:11.961Z,73.02
2023-03-07T09:04:29.969Z,73.51
2023-03-07T09:06:47.296Z,73.80
2023-03-07T09:09:04.614Z,72.73
2023-03-07T09:11:21.614Z,73.51
2023-03-07T09:13:50.908Z,72.67
2023-03-07T09:16:09.111Z,73.11
2023-03-07T09:18:26.172Z,73.07
2023-03-07T09:20:44.206Z,71.95
2023-03-07T09:23:01.346Z,71.89
2023-03-07T09:25:18.295Z,71.76
2023-03-07T09:27:35.221Z,72.17
2023-03-07T09:29:52.554Z,71.35
2023-03-07T09:32:09.644Z,70.82
2023-03-07T09:34:26.730Z,70.02
2023-03-07T09:36:43.709Z,70.49
2023-03-07T09:39:00.779Z,71.23
2023-03-07T09:41:17.721Z,70.70
2023-03-07T09:43:34.654Z,69.87
2023-03-07T09:45:51.940Z,70.03
2023-03-07T09:48:08.915Z,70.17
2023-03-07T09:50:25.820Z,68.89
2023-03-07T09:52:43.091Z,68.00
2023-03-07T09:55:01.326Z,69.20
2023-03-07T09:57:18.286Z,67.94
2023-03-07T09:59:35.589Z,67.56
2023-03-07T10:01:52.910Z,67.98
2023-03-07T10:04:09.829Z,69.01
2023-03-07T10:06:26.818Z,67.49
2023-03-07T10:08:43.728Z,68.58
2023-03-07T10:11:00.790Z,68.06
2023-03-07T10:13:17.809Z,67.13
2023-03-07T10:15:35.072Z,65.77
2023-03-07T10:17:51.989Z,64.74
2023-03-07T10:20:09.055Z,63.67
2023-03-07T10:22:26.064Z,62.53
2023-03-07T10:24:43.164Z,63.01
2023-03-07T10:27:00.248Z,61.77
2023-03-07T10:29:17.544Z,61.93
2023-03-07T10:31:34.812Z,61.89
2023-03-07T10:33:51.922Z,61.52
2023-03-07T10:36:09.016Z,61.62
2023-03-07T10:38:26.054Z,62.33
2023-03-07T10:40:44.303Z,61.95
2023-03-07T10:43:01.554Z,62.58
2023-03-07T10:45:18.575Z,62.50
2023-03-07T10:47:35.483Z,62.63
2023-03-07T10:49:52.601Z,62.69
2023-03-07T10:52:10.057Z,63.98
2023-03-07T10:54:29.181Z,63.15
2023-03-07T10:56:47.974Z,63.88
2023-03-07T10:59:04.868Z,63.65
2023-03-07T11:01:21.984Z,64.80
2023-03-07T11:03:51.428Z,63.62
2023-03-07T11:06:10.178Z,63.03
2023-03-07T11:08:27.177Z,62.98
2023-03-07T11:10:44.554Z,64.29
2023-03-07T11:13:01.814Z,62.74
2023-03-07T11:15:18.828Z,62.48
2023-03-07T11:17:35.780Z,64.02
2023-03-07T11:19:52.905Z,64.31
2023-03-07T11:22:09.948Z,65.07
2023-03-07T11:24:26.990Z,63.87
2023-03-07T11:26:43.982Z,63.83
2023-03-07T11:29:00.923Z,64.44
2023-03-07T11:31:17.890Z,64.92
2023-03-07T11:33:34.790Z,61.49
2023-03-07T11:35:51.733Z,62.69
2023-03-07T11:38:08.913Z,61.80
2023-03-07T11:40:25.984Z,61.24
2023-03-07T11:42:43.258Z,62.85
2023-03-07T11:45:00.555Z,62.34
2023-03-07T11:47:17.664Z,62.05
2023-03-07T11:49:34.600Z,61.20
2023-03-07T11:51:52.951Z,63.28
2023-03-07T11:54:10.941Z,64.43
2023-03-07T11:56:27.861Z,63.14
2023-03-07T11:58:44.889Z,64.30
2023-03-07T12:01:01.855Z,63.61
2023-03-07T12:03:18.936Z,63.57
2023-03-07T12:05:36.040Z,63.92
2023-03-07T12:07:53.419Z,64.17
2023-03-07T12:10:10.387Z,65.06
2023-03-07T12:12:27.678Z,65.00
2023-03-07T12:14:44.744Z,66.13
2023-03-07T12:17:02.721Z,66.74
2023-03-07T12:19:19.709Z,66.32
2023-03-07T12:21:37.048Z,66.78
2023-03-07T12:23:54.347Z,66.88
2023-03-07T12:26:11.474Z,66.11
2023-03-07T12:28:28.526Z,67.18
2023-03-07T12:30:45.836Z,67.78
2023-03-07T12:33:02.892Z,68.00
2023-03-07T12:35:20.183Z,67.01
2023-03-07T12:37:37.171Z,67.46
2023-03-07T12:39:54.253Z,67.64
2023-03-07T12:42:12.312Z,67.54
2023-03-07T12:44:29.250Z,67.64
2023-03-07T12:46:46.181Z,67.70
2023-03-07T12:49:03.489Z,68.28
2023-03-07T12:51:21.421Z,68.47
2023-03-07T12:53:39.385Z,69.23
2023-03-07T12:55:56.439Z,68.68
2023-03-07T12:58:13.759Z,68.54
2023-03-07T13:00:31.020Z,67.81
2023-03-07T13:02:48.251Z,67.23
2023-03-07T13:05:05.456Z,67.88
2023-03-07T13:07:22.560Z,67.39
2023-03-07T13:09:39.616Z,67.56
2023-03-07T13:11:56.696Z,67.13
2023-03-07T13:14:13.750Z,67.02
2023-03-07T13:16:30.782Z,67.58
2023-03-07T13:18:47.778Z,67.46
2023-03-07T13:21:04.861Z,67.49
2023-03-07T13:23:21.766Z,67.85
2023-03-07T13:25:39.059Z,68.18
2023-03-07T13:27:57.312Z,69.03
2023-03-07T13:30:14.255Z,68.40
2023-03-07T13:32:32.298Z,68.91
2023-03-07T13:34:49.204Z,69.48
2023-03-07T13:37:06.135Z,69.35
2023-03-07T13:39:23.142Z,70.13
2023-03-07T13:41:40.386Z,69.81
2023-03-07T13:43:57.680Z,70.69
2023-03-07T13:46:14.781Z,70.83
2023-03-07T13:48:33.149Z,71.20
2023-03-07T13:50:50.379Z,71.63
2023-03-07T13:53:07.691Z,70.65
2023-03-07T13:55:25.019Z,70.83
2023-03-07T13:57:42.125Z,70.68
2023-03-07T13:59:59.358Z,70.74
2023-03-07T14:02:16.277Z,69.18
2023-03-07T14:04:40.376Z,68.38
2023-03-07T14:06:57.885Z,68.94
2023-03-07T14:09:14.938Z,68.85
2023-03-07T14:11:32.218Z,67.86
2023-03-07T14:13:49.166Z,68.50
2023-03-07T14:16:07.276Z,67.91
2023-03-07T14:18:25.097Z,66.36
2023-03-07T14:20:41.986Z,66.82
2023-03-07T14:22:59.097Z,66.04
2023-03-07T14:25:16.119Z,65.58
2023-03-07T14:27:33.274Z,66.37
2023-03-07T14:29:50.358Z,66.51
2023-03-07T14:32:07.430Z,66.32
2023-03-07T14:34:24.701Z,66.13
2023-03-07T14:36:41.706Z,65.74
2023-03-07T14:38:58.785Z,66.47
2023-03-07T14:41:16.016Z,66.14
2023-03-07T14:43:33.031Z,65.51
2023-03-07T14:45:50.048Z,64.85
2023-03-07T14:48:07.048Z,64.64
2023-03-07T14:50:24.208Z,65.76
2023-03-07T14:52:41.226Z,64.92
2023-03-07T14:54:58.570Z,65.23
2023-03-07T14:57:15.853Z,63.59
2023-03-07T14:59:33.206Z,62.87
2023-03-07T15:01:50.161Z,62.58
2023-03-07T15:04:07.177Z,61.56
2023-03-07T15:06:24.076Z,61.99
2023-03-07T15:08:41.397Z,61.52
2023-03-07T15:10:58.336Z,61.90
2023-03-07T15:13:15.831Z,62.79
2023-03-07T15:15:33.115Z,62.50
2023-03-07T15:17:50.033Z,63.75
2023-03-07T15:20:07.298Z,63.26
2023-03-07T15:22:24.562Z,64.62
2023-03-07T15:24:41.807Z,64.02
2023-03-07T15:26:58.886Z,64.45
2023-03-07T15:29:16.169Z,65.05
2023-03-07T15:31:33.216Z,63.98
2023-03-07T15:33:50.278Z,65.84
2023-03-07T15:36:07.464Z,65.51
2023-03-07T15:38:25.744Z,64.65
2023-03-07T15:40:42.980Z,65.43
2023-03-07T15:42:59.998Z,64.68
2023-03-07T15:45:16.897Z,64.35
2023-03-07T15:47:34.164Z,63.69
2023-03-07T15:49:51.244Z,64.90
2023-03-07T15:52:08.502Z,64.57
2023-03-07T15:54:25.790Z,64.29
2023-03-07T15:56:43.045Z,65.58
2023-03-07T15:58:59.984Z,65.86
2023-03-07T16:01:17.028Z,66.27
2023-03-07T16:03:34.422Z,66.47
2023-03-07T16:05:51.535Z,67.29
2023-03-07T16:08:08.568Z,67.49
2023-03-07T16:10:25.603Z,67.76
2023-03-07T16:12:42.564Z,67.65
2023-03-07T16:14:59.568Z,67.89
2023-03-07T16:17:16.918Z,68.02
2023-03-07T16:19:33.942Z,68.07
2023-03-07T16:21:50.979Z,68.57
2023-03-07T16:24:07.988Z,69.15
2023-03-07T16:26:24.961Z,69.01
2023-03-07T16:28:44.124Z,68.89
2023-03-07T16:31:01.245Z,68.14
2023-03-07T16:33:18.474Z,68.94
2023-03-07T16:35:35.505Z,67.50
2023-03-07T16:37:52.534Z,67.62
2023-03-07T16:40:09.614Z,67.07
2023-03-07T16:42:26.859Z,67.11
2023-03-07T16:44:43.757Z,67.36
2023-03-07T16:47:00.684Z,67.62
2023-03-07T16:49:18.675Z,67.22
2023-03-07T16:51:35.554Z,67.96
2023-03-07T16:53:52.822Z,68.64
2023-03-07T16:56:10.327Z,68.52
2023-03-07T16:58:27.615Z,68.18
2023-03-07T17:00:44.815Z,69.08
2023-03-07T17:03:01.828Z,69.04
2023-03-07T17:05:18.734Z,68.12
2023-03-07T17:07:35.594Z,68.06
2023-03-07T17:09:52.462Z,67.68
2023-03-07T17:12:09.468Z,67.76
2023-03-07T17:14:26.396Z,68.33
2023-03-07T17:16:44.983Z,68.84
2023-03-07T17:19:02.435Z,68.27
2023-03-07T17:21:19.445Z,68.03
2023-03-07T17:23:36.486Z,67.26
2023-03-07T17:25:53.504Z,67.65
2023-03-07T17:28:10.399Z,67.74
2023-03-07T17:30:27.733Z,67.69
2023-03-07T17:32:44.781Z,67.10
2023-03-07T17:35:01.810Z,68.57
2023-03-07T17:37:18.833Z,68.44
2023-03-07T17:39:36.118Z,68.15
2023-03-07T17:41:54.345Z,68.65
2023-03-07T17:44:11.469Z,67.86
2023-03-07T17:46:28.797Z,68.72
2023-03-07T17:48:45.712Z,69.06
2023-03-07T17:51:02.947Z,68.77
2023-03-07T17:53:20.016Z,68.23
2023-03-07T17:55:37.322Z,68.63
2023-03-07T17:57:54.393Z,69.07
2023-03-07T18:00:11.416Z,68.45
2023-03-07T18:02:28.743Z,68.74
2023-03-07T18:04:45.998Z,69.54
2023-03-07T18:07:03.285Z,69.52
2023-03-07T18:09:20.575Z,69.62
2023-03-07T18:11:38.489Z,69.39
2023-03-07T18:13:55.424Z,69.55
2023-03-07T18:16:12.449Z,69.51
2023-03-07T18:18:29.699Z,70.21
2023-03-07T18:20:46.879Z,69.66
2023-03-07T18:23:03.712Z,69.74
2023-03-07T18:25:20.947Z,69.95
2023-03-07T18:27:37.925Z,69.17
2023-03-07T18:29:54.981Z,69.20
2023-03-07T18:32:12.263Z,69.72
2023-03-07T18:34:29.489Z,69.33
2023-03-07T18:36:46.927Z,70.06
2023-03-07T18:39:03.906Z,69.38
2023-03-07T18:41:20.794Z,69.99
2023-03-07T18:43:37.779Z,70.42
2023-03-07T18:45:54.658Z,69.90
2023-03-07T18:48:11.890Z,70.23
2023-03-07T18:50:28.915Z,70.35
2023-03-07T18:52:45.802Z,70.10
2023-03-07T18:55:02.827Z,70.34
2023-03-07T18:57:20.202Z,70.00
2023-03-07T18:59:37.123Z,70.76
2023-03-07T19:01:54.068Z,70.43
2023-03-07T19:04:11.159Z,70.76
2023-03-07T19:06:28.250Z,70.91
2023-03-07T19:08:45.165Z,70.79
2023-03-07T19:11:02.424Z,69.92
2023-03-07T19:13:20.284Z,70.57
2023-03-07T19:15:37.541Z,70.35
2023-03-07T19:17:54.448Z,70.39
2023-03-07T19:20:11.460Z,71.55
2023-03-07T19:22:28.437Z,71.09
2023-03-07T19:24:45.384Z,71.34
2023-03-07T19:27:02.317Z,70.78
2023-03-07T19:29:19.197Z,70.92
2023-03-07T19:31:36.147Z,70.74
2023-03-07T19:33:53.133Z,70.80
2023-03-07T19:36:10.122Z,70.18
2023-03-07T19:38:27.160Z,69.87
2023-03-07T19:40:44.163Z,69.79
2023-03-07T19:43:01.476Z,70.78
2023-03-07T19:45:18.375Z,70.33
2023-03-07T19:47:35.317Z,70.39
2023-03-07T19:49:52.196Z,70.70
2023-03-07T19:52:09.488Z,71.08
2023-03-07T19:54:26.394Z,70.06
2023-03-07T19:56:43.706Z,70.20
2023-03-07T19:59:00.667Z,70.02
2023-03-07T20:01:17.710Z,70.21
2023-03-07T20:03:35.012Z,68.90
2023-03-07T20:05:51.952Z,69.17
2023-03-07T20:08:09.208Z,69.86
2023-03-07T20:10:26.524Z,69.87
2023-03-07T20:12:43.827Z,68.55
2023-03-07T20:15:00.753Z,68.33
2023-03-07T20:17:17.708Z,68.66
2023-03-07T20:19:35.029Z,68.96
2023-03-07T20:21:52.301Z,69.23
2023-03-07T20:24:09.501Z,69.57
2023-03-07T20:26:26.546Z,69.46
2023-03-07T20:28:43.491Z,69.10
2023-03-07T20:31:00.513Z,69.46
2023-03-07T20:33:18.439Z,68.61
2023-03-07T20:35:35.505Z,68.15
2023-03-07T20:37:52.562Z,68.46
2023-03-07T20:40:09.887Z,68.87
2023-03-07T20:42:27.110Z,68.75
2023-03-07T20:44:44.400Z,68.60
2023-03-07T20:47:01.632Z,68.94
2023-03-07T20:49:18.890Z,69.29
2023-03-07T20:51:35.804Z,68.13
2023-03-07T20:53:53.048Z,68.83
2023-03-07T20:56:10.007Z,68.27
2023-03-07T20:58:27.309Z,68.23
2023-03-07T21:00:45.363Z,67.99
2023-03-07T21:03:06.082Z,68.49
2023-03-07T21:05:23.318Z,68.38
2023-03-07T21:07:40.356Z,69.34
2023-03-07T21:09:57.285Z,69.35
2023-03-07T21:12:14.262Z,69.54
2023-03-07T21:14:31.615Z,69.50
2023-03-07T21:16:48.532Z,69.31
2023-03-07T21:19:05.853Z,69.89
2023-03-07T21:21:23.794Z,69.00
2023-03-07T21:23:40.747Z,69.68
2023-03-07T21:25:57.834Z,69.77
2023-03-07T21:28:14.751Z,70.15
2023-03-07T21:30:31.738Z,70.00
2023-03-07T21:32:48.649Z,68.64
2023-03-07T21:35:05.658Z,68.98
2023-03-07T21:37:22.748Z,68.55
2023-03-07T21:39:40.016Z,69.63
2023-03-07T21:41:57.312Z,68.58
2023-03-07T21:44:14.403Z,69.29
2023-03-07T21:46:31.340Z,69.41
2023-03-07T21:48:48.587Z,70.33
2023-03-07T21:51:05.542Z,69.28
2023-03-07T21:53:24.587Z,69.52
2023-03-07T21:55:42.590Z,69.68
2023-03-07T21:57:59.793Z,70.52
2023-03-07T22:00:16.738Z,70.07
2023-03-07T22:02:33.961Z,70.53
2023-03-07T22:04:50.988Z,70.88
2023-03-07T22:07:07.923Z,70.63
2023-03-07T22:09:24.890Z,69.94
2023-03-07T22:11:42.237Z,70.74
2023-03-07T22:13:59.326Z,69.82
2023-03-07T22:16:16.348Z,70.31
2023-03-07T22:18:33.518Z,70.18
2023-03-07T22:20:50.567Z,70.10
2023-03-07T22:23:07.462Z,70.82
2023-03-07T22:25:24.419Z,70.50
2023-03-07T22:27:41.334Z,70.25
2023-03-07T22:29:58.314Z,69.42
2023-03-07T22:32:15.668Z,70.41
2023-03-07T22:34:32.664Z,70.77
2023-03-07T22:36:50.568Z,69.75
2023-03-07T22:39:07.827Z,69.68
2023-03-07T22:41:25.394Z,69.64
2023-03-07T22:43:42.354Z,69.49
2023-03-07T22:45:59.440Z,69.57
2023-03-07T22:48:16.467Z,69.49
2023-03-07T22:50:33.469Z,69.73
2023-03-07T22:52:50.437Z,69.42
2023-03-07T22:55:07.480Z,69.00
2023-03-07T22:57:25.321Z,69.02
2023-03-07T22:59:42.327Z,68.67
2023-03-07T23:01:59.340Z,69.63
2023-03-07T23:04:16.495Z,69.38
2023-03-07T23:06:33.463Z,69.10
2023-03-07T23:08:51.748Z,68.50
2023-03-07T23:11:08.792Z,68.51
2023-03-07T23:13:26.050Z,69.02
2023-03-07T23:15:43.082Z,69.11
2023-03-07T23:18:00.121Z,70.23
2023-03-07T23:20:17.314Z,70.04
2023-03-07T23:22:34.589Z,69.77
2023-03-07T23:24:51.488Z,70.78
2023-03-07T23:27:08.851Z,71.04
2023-03-07T23:29:25.752Z,70.94
2023-03-07T23:31:42.671Z,71.45
2023-03-07T23:33:59.680Z,70.66
2023-03-07T23:36:16.966Z,70.22
2023-03-07T23:38:33.926Z,69.93
2023-03-07T23:40:51.191Z,69.54
2023-03-07T23:43:08.510Z,70.53
2023-03-07T23:45:25.874Z,69.55
2023-03-07T23:47:42.774Z,68.90
2023-03-07T23:49:59.669Z,70.20
2023-03-07T23:52:16.543Z,70.09
2023-03-07T23:54:33.517Z,70.18
2023-03-07T23:56:50.403Z,70.52
2023-03-07T23:59:08.420Z,69.88
